createdAt,value
2017-01-26T00:00:51.170Z,26.21
2017-01-26T00:01:50.737Z,26.26
2017-01-26T00:02:50.787Z,26.23
2017-01-26T00:03:50.850Z,26.25
2017-01-26T00:04:51.202Z,26.17
2017-01-26T00:05:51.581Z,26.09
2017-01-26T00:06:52.363Z,26.17
2017-01-26T00:07:51.624Z,26.13
2017-01-26T00:08:51.181Z,26.1
2017-01-26T00:09:51.289Z,26.09
2017-01-26T00:10:52.444Z,26.1
2017-01-26T00:11:50.864Z,25.98
2017-01-26T00:12:51.262Z,26.12
2017-01-26T00:13:51.218Z,26.09
2017-01-26T00:14:51.673Z,26.09
2017-01-26T00:15:51.233Z,26.12
2017-01-26T00:16:51.308Z,26.12
2017-01-26T00:17:52.146Z,26.15
2017-01-26T00:18:51.259Z,26.12
2017-01-26T00:19:51.266Z,26.13
2017-01-26T00:20:51.325Z,26.06
2017-01-26T00:21:52.182Z,26.07
2017-01-26T00:22:50.944Z,26.06
2017-01-26T00:23:51.795Z,26.13
2017-01-26T00:24:51.355Z,26.15
2017-01-26T00:25:51.711Z,25.99
2017-01-26T00:26:50.975Z,26.02
2017-01-26T00:27:51.776Z,26.06
2017-01-26T00:28:51.335Z,26.12
2017-01-26T00:29:51.342Z,26.01
2017-01-26T00:30:52.722Z,25.99
2017-01-26T00:31:51.411Z,25.95
2017-01-26T00:32:52.067Z,25.98
2017-01-26T00:33:51.768Z,26.12
2017-01-26T00:34:51.777Z,26.1
2017-01-26T00:35:51.834Z,26.13
2017-01-26T00:36:51.817Z,26.13
2017-01-26T00:37:51.406Z,26.09
2017-01-26T00:38:51.820Z,26.06
2017-01-26T00:39:51.073Z,26.02
2017-01-26T00:40:51.432Z,26.1
2017-01-26T00:41:51.085Z,26.13
2017-01-26T00:42:51.049Z,25.99
2017-01-26T00:43:51.599Z,26.12
2017-01-26T00:44:51.460Z,26.01
2017-01-26T00:45:51.467Z,25.98
2017-01-26T00:46:51.474Z,25.88
2017-01-26T00:47:51.530Z,26.02
2017-01-26T00:48:51.588Z,26.01
2017-01-26T00:49:51.494Z,26.01
2017-01-26T00:50:51.904Z,26.17
2017-01-26T00:51:51.961Z,26.15
2017-01-26T00:52:52.913Z,26.07
2017-01-26T00:53:51.920Z,26.1
2017-01-26T00:54:51.635Z,26.13
2017-01-26T00:55:51.539Z,25.99
2017-01-26T00:56:52.950Z,26.12
2017-01-26T00:57:51.858Z,25.99
2017-01-26T00:58:51.612Z,25.95
2017-01-26T00:59:51.569Z,25.99
2017-01-26T01:00:51.580Z,26.01
2017-01-26T01:01:51.188Z,26.12
2017-01-26T01:02:51.661Z,26.2
2017-01-26T01:03:52.006Z,26.12
2017-01-26T01:04:51.656Z,26.13
2017-01-26T01:05:51.221Z,26.07
2017-01-26T01:06:51.698Z,26.01
2017-01-26T01:07:52.875Z,26.1
2017-01-26T01:08:51.639Z,26.06
2017-01-26T01:09:51.749Z,26.1
2017-01-26T01:10:51.310Z,26.1
2017-01-26T01:11:52.060Z,26.07
2017-01-26T01:12:52.114Z,26.18
2017-01-26T01:13:52.080Z,26.13
2017-01-26T01:14:51.291Z,26.09
2017-01-26T01:15:51.693Z,26.05
2017-01-26T01:16:51.357Z,26.09
2017-01-26T01:17:52.157Z,26.06
2017-01-26T01:18:52.714Z,26.09
2017-01-26T01:19:52.121Z,26.13
2017-01-26T01:20:52.130Z,26.06
2017-01-26T01:21:52.135Z,26.01
2017-01-26T01:22:52.192Z,26.01
2017-01-26T01:23:51.753Z,25.98
2017-01-26T01:24:51.764Z,25.99
2017-01-26T01:25:52.120Z,26.09
2017-01-26T01:26:51.782Z,26.07
2017-01-26T01:27:53.662Z,26.09
2017-01-26T01:28:52.185Z,26.12
2017-01-26T01:29:52.200Z,26.02
2017-01-26T01:30:51.806Z,26.17
2017-01-26T01:31:51.814Z,26.1
2017-01-26T01:32:52.217Z,26.12
2017-01-26T01:33:51.831Z,26.13
2017-01-26T01:34:51.491Z,26.1
2017-01-26T01:35:52.240Z,26.12
2017-01-26T01:36:51.903Z,26.12
2017-01-26T01:37:51.958Z,26.1
2017-01-26T01:38:51.869Z,26.13
2017-01-26T01:39:51.528Z,26.15
2017-01-26T01:40:52.452Z,26.12
2017-01-26T01:41:51.943Z,26.1
2017-01-26T01:42:52.292Z,26.2
2017-01-26T01:43:54.460Z,26.13
2017-01-26T01:44:51.914Z,26.1
2017-01-26T01:45:51.523Z,26.13
2017-01-26T01:46:51.977Z,26.01
2017-01-26T01:47:51.984Z,25.95
2017-01-26T01:48:52.388Z,26.12
2017-01-26T01:49:53.115Z,26.07
2017-01-26T01:50:52.353Z,26.13
2017-01-26T01:51:52.408Z,26.1
2017-01-26T01:52:52.022Z,26.09
2017-01-26T01:53:51.636Z,26.06
2017-01-26T01:54:51.991Z,26.13
2017-01-26T01:55:51.597Z,26.05
2017-01-26T01:56:52.399Z,25.99
2017-01-26T01:57:52.411Z,26.09
2017-01-26T01:58:52.014Z,26.01
2017-01-26T01:59:52.039Z,26.02
2017-01-26T02:00:52.034Z,26.09
2017-01-26T02:01:52.091Z,26.02
2017-01-26T02:02:52.147Z,25.98
2017-01-26T02:03:52.105Z,26.07
2017-01-26T02:04:53.515Z,26.09
2017-01-26T02:05:52.124Z,26.09
2017-01-26T02:06:52.129Z,26.21
2017-01-26T02:07:52.535Z,26.18
2017-01-26T02:08:52.169Z,26.1
2017-01-26T02:09:51.821Z,26.02
2017-01-26T02:10:51.714Z,26.07
2017-01-26T02:11:52.120Z,26.09
2017-01-26T02:12:52.176Z,26.06
2017-01-26T02:13:52.235Z,26.09
2017-01-26T02:14:52.189Z,26.12
2017-01-26T02:15:52.751Z,26.13
2017-01-26T02:16:52.153Z,26.07
2017-01-26T02:17:52.159Z,26.12
2017-01-26T02:18:52.572Z,26.12
2017-01-26T02:19:52.573Z,26.06
2017-01-26T02:20:52.186Z,26.07
2017-01-26T02:21:52.597Z,26.05
2017-01-26T02:22:52.645Z,26.12
2017-01-26T02:23:52.256Z,26.21
2017-01-26T02:24:53.459Z,26.13
2017-01-26T02:25:52.669Z,26.13
2017-01-26T02:26:52.825Z,26.12
2017-01-26T02:27:52.237Z,26.13
2017-01-26T02:28:52.296Z,26.07
2017-01-26T02:29:52.697Z,26.13
2017-01-26T02:30:51.871Z,26.15
2017-01-26T02:31:52.320Z,26.2
2017-01-26T02:32:52.276Z,26.13
2017-01-26T02:33:52.384Z,26.17
2017-01-26T02:34:51.896Z,26.17
2017-01-26T02:35:53.446Z,26.1
2017-01-26T02:36:52.411Z,26.21
2017-01-26T02:37:52.813Z,26.1
2017-01-26T02:38:52.717Z,26.1
2017-01-26T02:39:52.384Z,26.07
2017-01-26T02:40:51.939Z,26.15
2017-01-26T02:41:52.745Z,26.2
2017-01-26T02:42:52.354Z,26.23
2017-01-26T02:43:52.463Z,26.3
2017-01-26T02:44:52.762Z,26.15
2017-01-26T02:45:52.771Z,26.2
2017-01-26T02:46:52.379Z,26.23
2017-01-26T02:47:52.446Z,26.17
2017-01-26T02:48:52.448Z,26.12
2017-01-26T02:49:52.896Z,26.15
2017-01-26T02:50:53.716Z,26.28
2017-01-26T02:51:52.814Z,26.18
2017-01-26T02:52:52.426Z,26.32
2017-01-26T02:53:52.539Z,26.25
2017-01-26T02:54:52.448Z,26.25
2017-01-26T02:55:52.450Z,26.23
2017-01-26T02:56:52.862Z,26.17
2017-01-26T02:57:52.858Z,26.15
2017-01-26T02:58:52.923Z,26.09
2017-01-26T02:59:52.481Z,26.15
2017-01-26T03:00:52.540Z,26.13
2017-01-26T03:01:53.202Z,26.13
2017-01-26T03:02:52.574Z,26.12
2017-01-26T03:03:52.113Z,26.1
2017-01-26T03:04:52.518Z,26.13
2017-01-26T03:05:52.926Z,26.13
2017-01-26T03:06:52.735Z,26.12
2017-01-26T03:07:53.085Z,26.05
2017-01-26T03:08:52.628Z,26.05
2017-01-26T03:09:52.952Z,26.07
2017-01-26T03:10:53.001Z,26.1
2017-01-26T03:11:52.726Z,26.12
2017-01-26T03:12:53.724Z,26.15
2017-01-26T03:13:52.240Z,26.2
2017-01-26T03:14:52.496Z,26.17
2017-01-26T03:15:53.098Z,26.29
2017-01-26T03:16:53.056Z,26.18
2017-01-26T03:17:52.616Z,26.17
2017-01-26T03:18:53.070Z,26.09
2017-01-26T03:19:53.026Z,26.09
2017-01-26T03:20:52.738Z,26.17
2017-01-26T03:21:54.020Z,26.26
2017-01-26T03:22:53.098Z,26.21
2017-01-26T03:23:53.458Z,26.2
2017-01-26T03:24:52.719Z,26.17
2017-01-26T03:25:53.072Z,26.13
2017-01-26T03:26:52.683Z,26.09
2017-01-26T03:27:52.347Z,26.18
2017-01-26T03:28:53.094Z,26.21
2017-01-26T03:29:53.153Z,26.15
2017-01-26T03:30:52.715Z,26.1
2017-01-26T03:31:52.779Z,26.15
2017-01-26T03:32:52.778Z,26.15
2017-01-26T03:33:52.737Z,26.33
2017-01-26T03:34:53.450Z,26.33
2017-01-26T03:35:53.150Z,26.33
2017-01-26T03:36:53.152Z,26.33
2017-01-26T03:37:52.767Z,26.32
2017-01-26T03:38:52.773Z,26.2
2017-01-26T03:39:53.228Z,26.17
2017-01-26T03:40:52.809Z,26.17
2017-01-26T03:41:52.845Z,26.1
2017-01-26T03:42:52.852Z,26.06
2017-01-26T03:43:52.861Z,26.12
2017-01-26T03:44:52.818Z,26.13
2017-01-26T03:45:53.176Z,26.13
2017-01-26T03:46:53.235Z,26.09
2017-01-26T03:47:54.061Z,26.12
2017-01-26T03:48:53.649Z,26.32
2017-01-26T03:49:52.905Z,26.3
2017-01-26T03:50:53.262Z,26.26
2017-01-26T03:51:53.268Z,26.17
2017-01-26T03:52:53.273Z,26.17
2017-01-26T03:53:52.883Z,26.18
2017-01-26T03:54:52.894Z,26.1
2017-01-26T03:55:52.898Z,26.09
2017-01-26T03:56:53.402Z,26.02
2017-01-26T03:57:52.965Z,26.15
2017-01-26T03:58:54.470Z,26.2
2017-01-26T03:59:53.324Z,26.21
2017-01-26T04:00:53.389Z,26.23
2017-01-26T04:01:53.343Z,26.17
2017-01-26T04:02:52.951Z,26.15
2017-01-26T04:03:53.011Z,26.2
2017-01-26T04:04:52.626Z,26.17
2017-01-26T04:05:53.029Z,26.17
2017-01-26T04:06:53.380Z,26.15
2017-01-26T04:07:53.388Z,26.25
2017-01-26T04:08:53.047Z,26.12
2017-01-26T04:09:54.057Z,26.17
2017-01-26T04:10:53.410Z,26.25
2017-01-26T04:11:53.494Z,26.2
2017-01-26T04:12:53.421Z,26.29
2017-01-26T04:14:09.715Z,26.09
2017-01-26T04:14:53.445Z,26.12
2017-01-26T04:15:53.548Z,26.1
2017-01-26T04:16:53.461Z,26.2
2017-01-26T04:17:53.511Z,26.17
2017-01-26T04:18:53.122Z,26.32
2017-01-26T04:19:53.528Z,26.35
2017-01-26T04:20:54.338Z,26.33
2017-01-26T04:21:53.148Z,26.4
2017-01-26T04:22:53.207Z,26.21
2017-01-26T04:23:53.111Z,26.13
2017-01-26T04:24:52.820Z,26.15
2017-01-26T04:25:53.131Z,26.25
2017-01-26T04:26:53.132Z,26.15
2017-01-26T04:27:54.608Z,26.25
2017-01-26T04:28:53.147Z,26.17
2017-01-26T04:29:53.650Z,26.1
2017-01-26T04:30:53.166Z,26.28
2017-01-26T04:31:53.729Z,26.29
2017-01-26T04:32:53.236Z,26.21
2017-01-26T04:33:53.191Z,26.18
2017-01-26T04:34:53.199Z,26.13
2017-01-26T04:35:52.852Z,26.21
2017-01-26T04:36:53.603Z,26.21
2017-01-26T04:37:53.619Z,26.12
2017-01-26T04:38:53.277Z,26.17
2017-01-26T04:39:53.283Z,26.17
2017-01-26T04:40:52.894Z,26.3
2017-01-26T04:41:52.852Z,26.18
2017-01-26T04:42:53.733Z,26.32
2017-01-26T04:43:53.706Z,26.32
2017-01-26T04:44:54.990Z,26.32
2017-01-26T04:45:53.772Z,26.13
2017-01-26T04:46:53.677Z,26.15
2017-01-26T04:47:53.688Z,26.23
2017-01-26T04:48:53.304Z,26.29
2017-01-26T04:49:53.700Z,26.29
2017-01-26T04:50:53.763Z,26.28
2017-01-26T04:51:53.322Z,26.3
2017-01-26T04:52:53.726Z,26.21
2017-01-26T04:53:52.991Z,26.23
2017-01-26T04:54:53.742Z,26.1
2017-01-26T04:55:54.187Z,26.12
2017-01-26T04:56:53.759Z,26.12
2017-01-26T04:57:53.468Z,26.05
2017-01-26T04:58:53.774Z,26.09
2017-01-26T04:59:53.037Z,26.06
2017-01-26T05:00:52.996Z,26.05
2017-01-26T05:01:53.001Z,26.05
2017-01-26T05:02:53.008Z,26.15
2017-01-26T05:03:53.859Z,26.18
2017-01-26T05:04:53.422Z,26.17
2017-01-26T05:05:53.031Z,26.17
2017-01-26T05:06:54.436Z,26.13
2017-01-26T05:07:53.443Z,26.17
2017-01-26T05:08:53.450Z,26.12
2017-01-26T05:09:53.116Z,26.15
2017-01-26T05:10:53.121Z,26.09
2017-01-26T05:11:53.921Z,26.17
2017-01-26T05:12:53.533Z,26.2
2017-01-26T05:14:08.419Z,26.28
2017-01-26T05:14:53.150Z,26.21
2017-01-26T05:15:53.948Z,26.3
2017-01-26T05:16:53.166Z,26.29
2017-01-26T05:17:54.070Z,26.29
2017-01-26T05:18:53.929Z,26.12
2017-01-26T05:19:55.003Z,26.21
2017-01-26T05:20:53.939Z,26.36
2017-01-26T05:21:53.549Z,26.37
2017-01-26T05:22:53.558Z,26.32
2017-01-26T05:23:53.612Z,26.35
2017-01-26T05:24:53.621Z,26.23
2017-01-26T05:25:53.981Z,26.28
2017-01-26T05:26:53.269Z,26.17
2017-01-26T05:27:53.593Z,26.21
2017-01-26T05:28:53.804Z,26.21
2017-01-26T05:29:53.610Z,26.13
2017-01-26T05:30:55.178Z,26.18
2017-01-26T05:31:54.070Z,26.17
2017-01-26T05:32:53.632Z,26.17
2017-01-26T05:33:53.686Z,26.2
2017-01-26T05:34:53.304Z,26.25
2017-01-26T05:35:54.058Z,26.32
2017-01-26T05:36:53.715Z,26.3
2017-01-26T05:37:53.721Z,26.28
2017-01-26T05:38:53.726Z,26.2
2017-01-26T05:39:54.082Z,26.21
2017-01-26T05:40:53.695Z,26.17
2017-01-26T05:41:54.457Z,26.1
2017-01-26T05:42:54.102Z,26.1
2017-01-26T05:43:53.767Z,26.13
2017-01-26T05:44:53.772Z,26.21
2017-01-26T05:45:53.729Z,26.18
2017-01-26T05:46:53.788Z,26.17
2017-01-26T05:47:53.448Z,26.2
2017-01-26T05:48:54.150Z,26.07
2017-01-26T05:49:54.260Z,26.09
2017-01-26T05:50:53.768Z,26.17
2017-01-26T05:51:54.174Z,26.13
2017-01-26T05:52:54.463Z,26.18
2017-01-26T05:53:54.188Z,26.37
2017-01-26T05:54:53.454Z,26.32
2017-01-26T05:55:53.906Z,26.33
2017-01-26T05:56:54.212Z,26.23
2017-01-26T05:57:53.824Z,26.17
2017-01-26T05:58:53.931Z,26.07
2017-01-26T05:59:53.886Z,26.09
2017-01-26T06:00:53.893Z,26.1
2017-01-26T06:01:53.951Z,26.1
2017-01-26T06:02:53.862Z,26.18
2017-01-26T06:03:54.264Z,26.2
2017-01-26T06:04:54.319Z,26.17
2017-01-26T06:05:54.858Z,26.07
2017-01-26T06:06:54.292Z,26.25
2017-01-26T06:07:53.898Z,26.17
2017-01-26T06:08:53.904Z,26.15
2017-01-26T06:09:53.516Z,26.13
2017-01-26T06:10:54.221Z,26.21
2017-01-26T06:11:54.425Z,26.18
2017-01-26T06:12:53.933Z,26.12
2017-01-26T06:13:54.045Z,26.12
2017-01-26T06:14:54.344Z,26.25
2017-01-26T06:15:53.957Z,26.12
2017-01-26T06:16:53.570Z,26.18
2017-01-26T06:17:54.068Z,26.2
2017-01-26T06:18:53.983Z,26.21
2017-01-26T06:19:54.435Z,26.17
2017-01-26T06:20:53.600Z,26.18
2017-01-26T06:21:54.004Z,26.15
2017-01-26T06:22:54.014Z,26.1
2017-01-26T06:23:54.411Z,26.09
2017-01-26T06:24:54.027Z,26.2
2017-01-26T06:25:54.236Z,26.21
2017-01-26T06:26:54.487Z,26.29
2017-01-26T06:27:53.702Z,26.26
2017-01-26T06:28:54.452Z,26.29
2017-01-26T06:29:54.456Z,26.15
2017-01-26T06:30:54.073Z,26.25
2017-01-26T06:31:54.129Z,26.2
2017-01-26T06:32:53.741Z,26.17
2017-01-26T06:33:54.092Z,26.15
2017-01-26T06:34:54.158Z,26.1
2017-01-26T06:35:54.553Z,26.18
2017-01-26T06:36:54.116Z,26.23
2017-01-26T06:37:54.569Z,26.3
2017-01-26T06:38:55.434Z,26.28
2017-01-26T06:39:54.587Z,26.35
2017-01-26T06:40:54.644Z,26.32
2017-01-26T06:41:54.555Z,26.35
2017-01-26T06:42:54.210Z,26.32
2017-01-26T06:43:54.615Z,26.2
2017-01-26T06:44:53.782Z,26.2
2017-01-26T06:45:54.578Z,26.21
2017-01-26T06:46:54.596Z,26.25
2017-01-26T06:47:54.299Z,26.26
2017-01-26T06:48:54.207Z,26.21
2017-01-26T06:49:55.014Z,26.2
2017-01-26T06:50:54.320Z,26.25
2017-01-26T06:51:54.581Z,26.32
2017-01-26T06:52:53.840Z,26.33
2017-01-26T06:53:54.744Z,26.15
2017-01-26T06:54:53.855Z,26.21
2017-01-26T06:55:54.258Z,26.23
2017-01-26T06:56:54.272Z,26.25
2017-01-26T06:57:53.977Z,26.29
2017-01-26T06:58:54.282Z,26.29
2017-01-26T06:59:54.290Z,26.32
2017-01-26T07:00:54.944Z,26.37
2017-01-26T07:01:53.957Z,26.2
2017-01-26T07:02:56.191Z,26.2
2017-01-26T07:03:54.324Z,26.25
2017-01-26T07:04:54.727Z,26.15
2017-01-26T07:05:54.335Z,26.13
2017-01-26T07:06:53.998Z,26.07
2017-01-26T07:07:54.354Z,26.12
2017-01-26T07:08:54.854Z,26.07
2017-01-26T07:09:54.416Z,26.12
2017-01-26T07:10:54.371Z,26.21
2017-01-26T07:11:54.828Z,26.18
2017-01-26T07:12:54.040Z,26.21
2017-01-26T07:13:55.902Z,26.28
2017-01-26T07:14:54.847Z,26.26
2017-01-26T07:15:54.814Z,26.18
2017-01-26T07:16:54.072Z,26.17
2017-01-26T07:17:54.132Z,26.12
2017-01-26T07:18:54.437Z,26.13
2017-01-26T07:19:54.438Z,26.12
2017-01-26T07:20:54.843Z,26.13
2017-01-26T07:21:54.851Z,26.26
2017-01-26T07:22:54.856Z,26.26
2017-01-26T07:23:54.472Z,26.29
2017-01-26T07:24:55.831Z,26.29
2017-01-26T07:25:54.488Z,26.23
2017-01-26T07:26:54.891Z,26.13
2017-01-26T07:27:54.504Z,26.13
2017-01-26T07:28:54.905Z,26.18
2017-01-26T07:29:54.519Z,26.28
2017-01-26T07:30:54.523Z,26.43
2017-01-26T07:31:54.534Z,26.4
2017-01-26T07:32:54.935Z,26.36
2017-01-26T07:33:54.552Z,26.44
2017-01-26T07:34:55.000Z,26.5
2017-01-26T07:35:55.682Z,26.72
2017-01-26T07:36:54.964Z,26.77
2017-01-26T07:37:55.027Z,26.95
2017-01-26T07:38:54.640Z,26.99
2017-01-26T07:39:54.591Z,27.12
2017-01-26T07:40:55.046Z,27.14
2017-01-26T07:41:54.605Z,27.36
2017-01-26T07:42:54.269Z,27.44
2017-01-26T07:43:55.018Z,27.54
2017-01-26T07:44:55.041Z,27.63
2017-01-26T07:45:55.083Z,27.84
2017-01-26T07:46:56.046Z,27.92
2017-01-26T07:47:55.050Z,28.03
2017-01-26T07:48:54.667Z,28.14
2017-01-26T07:49:55.168Z,28.12
2017-01-26T07:50:55.076Z,28.19
2017-01-26T07:51:54.685Z,28.19
2017-01-26T07:52:54.398Z,28.34
2017-01-26T07:53:54.704Z,28.39
2017-01-26T07:54:54.719Z,28.49
2017-01-26T07:55:54.373Z,28.52
2017-01-26T07:56:54.730Z,28.56
2017-01-26T07:57:54.895Z,28.48
2017-01-26T07:58:54.748Z,28.54
2017-01-26T07:59:54.761Z,28.67
2017-01-26T08:00:54.760Z,28.66
2017-01-26T08:01:55.313Z,28.62
2017-01-26T08:02:55.174Z,28.64
2017-01-26T08:03:55.180Z,28.62
2017-01-26T08:04:54.911Z,28.54
2017-01-26T08:05:54.802Z,28.56
2017-01-26T08:06:54.860Z,28.51
2017-01-26T08:07:55.229Z,28.4
2017-01-26T08:08:55.271Z,28.44
2017-01-26T08:09:54.439Z,28.4
2017-01-26T08:10:56.345Z,28.22
2017-01-26T08:11:54.903Z,28.18
2017-01-26T08:12:54.910Z,28.14
2017-01-26T08:13:55.265Z,28.03
2017-01-26T08:14:55.321Z,27.93
2017-01-26T08:15:54.886Z,27.92
2017-01-26T08:16:55.344Z,27.92
2017-01-26T08:17:54.903Z,27.84
2017-01-26T08:19:03.776Z,27.74
2017-01-26T08:19:54.969Z,27.57
2017-01-26T08:20:54.980Z,27.55
2017-01-26T08:21:56.179Z,27.54
2017-01-26T08:22:54.944Z,27.51
2017-01-26T08:23:55.398Z,27.54
2017-01-26T08:24:54.959Z,27.4
2017-01-26T08:25:55.019Z,27.31
2017-01-26T08:26:55.373Z,27.24
2017-01-26T08:27:55.401Z,27.13
2017-01-26T08:28:54.998Z,27.12
2017-01-26T08:29:55.054Z,27.07
2017-01-26T08:30:55.019Z,27.04
2017-01-26T08:31:55.464Z,27.03
2017-01-26T08:32:56.074Z,27.07
2017-01-26T08:33:55.090Z,27.02
2017-01-26T08:34:55.457Z,26.84
2017-01-26T08:35:54.661Z,26.75
2017-01-26T08:36:55.107Z,26.75
2017-01-26T08:37:55.121Z,26.76
2017-01-26T08:38:55.077Z,26.77
2017-01-26T08:39:55.528Z,26.7
2017-01-26T08:40:55.489Z,26.66
2017-01-26T08:41:55.155Z,26.5
2017-01-26T08:42:54.718Z,26.52
2017-01-26T08:43:55.864Z,26.66
2017-01-26T08:44:54.729Z,26.63
2017-01-26T08:45:55.530Z,26.76
2017-01-26T08:46:55.539Z,26.82
2017-01-26T08:47:55.998Z,26.81
2017-01-26T08:48:54.760Z,26.99
2017-01-26T08:49:55.220Z,27.09
2017-01-26T08:50:55.173Z,27.22
2017-01-26T08:51:55.183Z,27.14
2017-01-26T08:52:55.587Z,27.39
2017-01-26T08:53:55.670Z,27.55
2017-01-26T08:54:55.707Z,27.74
2017-01-26T08:55:55.256Z,27.72
2017-01-26T08:56:56.878Z,28
2017-01-26T08:57:55.282Z,28.14
2017-01-26T08:58:55.805Z,28.15
2017-01-26T08:59:54.859Z,28.11
2017-01-26T09:00:55.263Z,28.12
2017-01-26T09:01:55.672Z,28.24
2017-01-26T09:02:55.336Z,28.36
2017-01-26T09:03:55.298Z,28.43
2017-01-26T09:04:55.304Z,28.31
2017-01-26T09:05:55.770Z,28.51
2017-01-26T09:06:55.441Z,28.48
2017-01-26T09:07:56.502Z,28.52
2017-01-26T09:08:55.354Z,28.54
2017-01-26T09:09:55.682Z,28.43
2017-01-26T09:10:54.979Z,28.46
2017-01-26T09:11:55.800Z,28.49
2017-01-26T09:12:55.456Z,28.49
2017-01-26T09:13:55.411Z,28.37
2017-01-26T09:14:55.473Z,28.39
2017-01-26T09:15:55.482Z,28.33
2017-01-26T09:16:55.047Z,28.39
2017-01-26T09:17:55.854Z,28.17
2017-01-26T09:18:56.723Z,28.11
2017-01-26T09:19:55.993Z,28.14
2017-01-26T09:20:55.496Z,28.11
2017-01-26T09:21:55.112Z,27.97
2017-01-26T09:22:55.569Z,27.85
2017-01-26T09:23:55.634Z,28
2017-01-26T09:24:55.147Z,27.84
2017-01-26T09:25:55.554Z,27.81
2017-01-26T09:26:55.179Z,27.85
2017-01-26T09:27:56.020Z,27.78
2017-01-26T09:28:55.638Z,27.69
2017-01-26T09:29:56.495Z,27.72
2017-01-26T09:30:55.610Z,27.62
2017-01-26T09:31:55.330Z,27.55
2017-01-26T09:32:55.634Z,27.5
2017-01-26T09:33:56.754Z,27.37
2017-01-26T09:34:55.315Z,27.43
2017-01-26T09:35:55.721Z,27.32
2017-01-26T09:36:56.130Z,27.4
2017-01-26T09:37:55.699Z,27.31
2017-01-26T09:38:55.707Z,27.21
2017-01-26T09:39:56.165Z,27.1
2017-01-26T09:40:55.982Z,27.12
2017-01-26T09:41:56.191Z,27.07
2017-01-26T09:42:57.529Z,27.09
2017-01-26T09:43:55.816Z,27.02
2017-01-26T09:44:56.376Z,26.88
2017-01-26T09:45:56.230Z,26.82
2017-01-26T09:46:56.240Z,26.81
2017-01-26T09:47:56.200Z,26.75
2017-01-26T09:48:55.817Z,26.63
2017-01-26T09:49:55.831Z,26.72
2017-01-26T09:50:56.230Z,26.65
2017-01-26T09:51:55.895Z,26.67
2017-01-26T09:52:55.912Z,26.7
2017-01-26T09:53:57.363Z,26.65
2017-01-26T09:54:55.940Z,26.67
2017-01-26T09:55:56.282Z,26.52
2017-01-26T09:56:55.911Z,26.67
2017-01-26T09:57:56.448Z,26.75
2017-01-26T09:58:56.358Z,26.81
2017-01-26T09:59:56.052Z,26.81
2017-01-26T10:00:55.932Z,26.91
2017-01-26T10:01:55.966Z,27.07
2017-01-26T10:02:55.971Z,27.06
2017-01-26T10:03:56.008Z,27.13
2017-01-26T10:04:57.121Z,27.4
2017-01-26T10:05:55.582Z,27.39
2017-01-26T10:06:55.639Z,27.37
2017-01-26T10:07:55.991Z,27.41
2017-01-26T10:08:55.656Z,27.57
2017-01-26T10:09:56.060Z,27.55
2017-01-26T10:10:55.673Z,27.7
2017-01-26T10:11:56.028Z,28
2017-01-26T10:12:56.430Z,28.22
2017-01-26T10:13:56.441Z,28.54
2017-01-26T10:14:56.103Z,28.56
2017-01-26T10:15:56.508Z,28.54
2017-01-26T10:16:56.469Z,28.34
2017-01-26T10:17:56.479Z,28.19
2017-01-26T10:18:56.485Z,28.15
2017-01-26T10:19:56.995Z,28.18
2017-01-26T10:20:56.501Z,28.09
2017-01-26T10:21:56.511Z,28.04
2017-01-26T10:22:55.777Z,27.94
2017-01-26T10:23:56.182Z,27.99
2017-01-26T10:24:55.746Z,27.88
2017-01-26T10:25:56.549Z,27.75
2017-01-26T10:26:56.734Z,27.62
2017-01-26T10:27:55.770Z,27.67
2017-01-26T10:28:57.912Z,27.66
2017-01-26T10:29:55.789Z,27.75
2017-01-26T10:30:56.793Z,27.82
2017-01-26T10:31:56.596Z,27.84
2017-01-26T10:32:56.213Z,27.79
2017-01-26T10:33:56.276Z,27.75
2017-01-26T10:34:56.230Z,27.72
2017-01-26T10:35:56.234Z,27.79
2017-01-26T10:36:56.295Z,27.78
2017-01-26T10:37:56.555Z,27.72
2017-01-26T10:38:55.868Z,27.75
2017-01-26T10:39:56.272Z,27.78
2017-01-26T10:40:55.880Z,27.72
2017-01-26T10:41:56.937Z,27.63
2017-01-26T10:42:56.348Z,27.7
2017-01-26T10:43:56.701Z,27.54
2017-01-26T10:44:56.414Z,27.54
2017-01-26T10:45:55.980Z,27.5
2017-01-26T10:46:56.382Z,27.49
2017-01-26T10:47:56.735Z,27.54
2017-01-26T10:48:55.958Z,27.41
2017-01-26T10:49:56.008Z,27.36
2017-01-26T10:50:57.969Z,27.25
2017-01-26T10:51:56.429Z,27.39
2017-01-26T10:52:56.935Z,27.25
2017-01-26T10:53:56.394Z,27.25
2017-01-26T10:54:56.401Z,27.28
2017-01-26T10:55:56.411Z,27.04
2017-01-26T10:56:56.418Z,27.18
2017-01-26T10:57:56.871Z,27.06
2017-01-26T10:58:56.955Z,27.04
2017-01-26T10:59:56.047Z,27.09
2017-01-26T11:00:56.451Z,27.09
2017-01-26T11:01:57.412Z,27.06
2017-01-26T11:02:56.073Z,26.91
2017-01-26T11:03:56.529Z,26.91
2017-01-26T11:04:56.934Z,26.82
2017-01-26T11:05:57.841Z,26.94
2017-01-26T11:06:56.529Z,26.88
2017-01-26T11:07:56.562Z,26.88
2017-01-26T11:08:56.519Z,26.82
2017-01-26T11:09:56.627Z,26.8
2017-01-26T11:10:56.985Z,26.73
2017-01-26T11:11:56.149Z,26.77
2017-01-26T11:12:57.701Z,26.66
2017-01-26T11:13:56.954Z,26.63
2017-01-26T11:14:56.222Z,26.85
2017-01-26T11:15:56.631Z,26.81
2017-01-26T11:16:57.785Z,26.87
2017-01-26T11:17:56.593Z,26.77
2017-01-26T11:18:56.209Z,26.69
2017-01-26T11:19:56.610Z,26.8
2017-01-26T11:20:56.273Z,26.81
2017-01-26T11:21:57.071Z,26.75
2017-01-26T11:22:56.631Z,26.82
2017-01-26T11:23:56.695Z,26.84
2017-01-26T11:24:57.096Z,26.81
2017-01-26T11:25:56.964Z,26.94
2017-01-26T11:26:56.669Z,26.95
2017-01-26T11:27:57.572Z,27
2017-01-26T11:28:56.687Z,27.14
2017-01-26T11:29:56.741Z,27.04
2017-01-26T11:30:56.700Z,27.07
2017-01-26T11:31:56.363Z,27.09
2017-01-26T11:32:56.372Z,27.12
2017-01-26T11:33:56.359Z,27.22
2017-01-26T11:34:57.178Z,27.1
2017-01-26T11:35:56.356Z,27.21
2017-01-26T11:36:58.367Z,27.28
2017-01-26T11:37:57.207Z,27.17
2017-01-26T11:39:25.800Z,27.31
2017-01-26T11:39:56.614Z,27.32
2017-01-26T11:40:56.964Z,27.4
2017-01-26T11:41:56.975Z,27.43
2017-01-26T11:42:56.585Z,27.39
2017-01-26T11:44:26.353Z,27.44
2017-01-26T11:44:57.346Z,27.4
2017-01-26T11:45:57.351Z,27.39
2017-01-26T11:46:57.017Z,27.4
2017-01-26T11:47:58.040Z,27.43
2017-01-26T11:48:57.378Z,27.41
2017-01-26T11:49:57.238Z,27.44
2017-01-26T11:50:56.603Z,27.44
2017-01-26T11:51:57.026Z,27.4
2017-01-26T11:52:57.318Z,27.41
2017-01-26T11:53:57.041Z,27.39
2017-01-26T11:54:56.784Z,27.5
2017-01-26T11:55:57.110Z,27.47
2017-01-26T11:56:57.055Z,27.46
2017-01-26T11:57:57.104Z,27.43
2017-01-26T11:58:58.214Z,27.5
2017-01-26T11:59:57.222Z,27.54
2017-01-26T12:00:57.548Z,27.59
2017-01-26T12:01:56.769Z,27.46
2017-01-26T12:02:58.342Z,27.36
2017-01-26T12:03:56.713Z,27.32
2017-01-26T12:04:57.516Z,27.43
2017-01-26T12:05:57.620Z,27.44
2017-01-26T12:06:56.743Z,27.29
2017-01-26T12:07:57.539Z,27.34
2017-01-26T12:08:57.354Z,27.32
2017-01-26T12:09:57.555Z,27.36
2017-01-26T12:10:57.166Z,27.54
2017-01-26T12:11:57.660Z,27.43
2017-01-26T12:12:57.629Z,27.25
2017-01-26T12:13:58.187Z,27.22
2017-01-26T12:14:57.283Z,27.19
2017-01-26T12:15:57.207Z,27.14
2017-01-26T12:16:57.215Z,27.13
2017-01-26T12:17:56.829Z,27.18
2017-01-26T12:18:57.727Z,27.29
2017-01-26T12:19:57.635Z,27.31
2017-01-26T12:20:57.253Z,27.22
2017-01-26T12:21:57.706Z,27.14
2017-01-26T12:22:57.658Z,27.18
2017-01-26T12:23:57.667Z,27.17
2017-01-26T12:24:58.232Z,27.19
2017-01-26T12:25:56.944Z,27.29
2017-01-26T12:26:57.296Z,27.17
2017-01-26T12:27:57.305Z,27.09
2017-01-26T12:28:56.972Z,27.14
2017-01-26T12:29:56.932Z,27.1
2017-01-26T12:30:56.930Z,27.04
2017-01-26T12:31:57.733Z,27.13
2017-01-26T12:32:57.344Z,27.09
2017-01-26T12:33:58.755Z,27.09
2017-01-26T12:34:57.807Z,27.12
2017-01-26T12:35:58.024Z,27.24
2017-01-26T12:36:57.431Z,27.09
2017-01-26T12:37:57.836Z,27.09
2017-01-26T12:38:57.398Z,27.19
2017-01-26T12:39:57.894Z,27.27
2017-01-26T12:40:57.457Z,27.1
2017-01-26T12:41:57.864Z,27.12
2017-01-26T12:42:57.869Z,27.13
2017-01-26T12:43:57.847Z,27.09
2017-01-26T12:44:58.990Z,27.18
2017-01-26T12:45:57.895Z,27.18
2017-01-26T12:46:57.859Z,27.13
2017-01-26T12:47:57.466Z,27.12
2017-01-26T12:48:58.730Z,27.17
2017-01-26T12:49:57.488Z,27.12
2017-01-26T12:50:57.540Z,27.14
2017-01-26T12:51:57.495Z,27.17
2017-01-26T12:52:57.905Z,27.13
2017-01-26T12:53:57.960Z,27.25
2017-01-26T12:54:57.967Z,27.1
2017-01-26T12:55:57.582Z,27.17
2017-01-26T12:56:57.538Z,27.09